Time;durP1;ratioP1;P1;durP2;ratioP2;P2;SDS_P1;SDS_P2;PMS_P1;PMS_P2;Temp;Humidity;BMP_temperature;BMP_pressure;BME280_temperature;BME280_humidity;BME280_pressure;Samples;Min_cycle;Max_cycle;Signal;HPM_P1;HPM_P2
2023/08/17 00:01:58;;;;;;;9.13;7.82;;;;;;;-145.00;67.50;72820.19;5067334;28;20044;-73
2023/08/17 00:04:24;;;;;;;9.52;7.35;;;;;;;-145.00;67.38;72822.28;5071684;28;20048;-73
2023/08/17 00:06:51;;;;;;;10.40;8.00;;;;;;;-145.00;66.48;72811.88;5069174;28;20056;-73
2023/08/17 00:09:17;;;;;;;12.38;8.40;;;;;;;-145.00;66.98;72813.94;5067362;28;20511;-73
2023/08/17 00:11:44;;;;;;;10.80;8.23;;;;;;;-145.00;66.93;72811.88;5067534;28;20113;-72
2023/08/17 00:14:11;;;;;;;10.13;7.78;;;;;;;-145.00;67.32;72805.63;5067016;28;20531;-73
2023/08/17 00:16:38;;;;;;;11.05;7.70;;;;;;;-145.00;67.16;72813.94;5067426;28;20060;-73
2023/08/17 00:19:05;;;;;;;9.45;8.15;;;;;;;-145.00;67.29;72820.19;5067738;28;20048;-73
2023/08/17 00:21:31;;;;;;;10.32;7.90;;;;;;;-145.00;67.46;72818.13;5066774;28;20045;-72
2023/08/17 00:23:58;;;;;;;10.50;8.30;;;;;;;-145.00;67.47;72818.13;5067310;28;20052;-73
2023/08/17 00:26:25;;;;;;;11.23;8.02;;;;;;;-145.00;67.58;72805.63;5067182;28;20048;-73
2023/08/17 00:28:51;;;;;;;8.52;7.47;;;;;;;-145.00;68.13;72801.47;5067461;28;20105;-73
2023/08/17 00:31:18;;;;;;;9.75;8.30;;;;;;;-145.00;67.92;72803.53;5065649;28;20060;-73
2023/08/17 00:33:45;;;;;;;9.50;7.90;;;;;;;-145.00;68.13;72805.63;5067256;28;20560;-73
2023/08/17 00:36:12;;;;;;;8.18;7.38;;;;;;;-145.00;68.09;72809.78;5066979;28;20044;-73
2023/08/17 00:38:38;;;;;;;13.18;9.50;;;;;;;-145.00;67.77;72809.78;5067542;28;20526;-73
2023/08/17 00:41:05;;;;;;;10.38;8.73;;;;;;;-145.00;67.84;72813.94;5066266;28;20496;-73
2023/08/17 00:43:31;;;;;;;11.95;8.38;;;;;;;-145.00;67.70;72813.94;5067150;28;20072;-73
2023/08/17 00:45:58;;;;;;;10.93;8.25;;;;;;;-145.00;67.66;72820.19;5066939;28;20052;-73
2023/08/17 00:48:25;;;;;;;10.35;8.30;;;;;;;-145.00;67.81;72818.13;5066394;28;20044;-72
2023/08/17 00:50:54;;;;;;;11.40;8.40;;;;;;;-145.00;67.74;72818.13;5067527;28;20045;-72
2023/08/17 00:53:21;;;;;;;9.45;8.43;;;;;;;-145.00;68.18;72841.00;5067328;28;20412;-72
2023/08/17 00:55:48;;;;;;;10.50;8.23;;;;;;;-145.00;68.22;72843.09;5067248;28;20393;-72
2023/08/17 00:58:15;;;;;;;10.20;8.15;;;;;;;-145.00;68.04;72841.00;5067560;28;20823;-72
2023/08/17 01:00:42;;;;;;;11.50;9.32;;;;;;;-145.00;67.91;72847.25;5074370;28;20560;-73
2023/08/17 01:03:08;;;;;;;10.77;9.13;;;;;;;-145.00;68.15;72843.09;5075119;28;20496;-72
2023/08/17 01:05:36;;;;;;;9.98;8.82;;;;;;;-145.00;68.41;72838.94;5075633;28;20047;-72
2023/08/17 01:08:04;;;;;;;11.77;9.73;;;;;;;-145.00;69.09;72859.75;5071666;28;20492;-73
2023/08/17 01:10:41;;;;;;;13.07;10.90;;;;;;;-145.00;69.69;72878.50;5071643;28;20063;-72
2023/08/17 01:13:13;;;;;;;14.75;11.10;;;;;;;-145.00;70.38;72909.72;5070798;28;20045;-73
2023/08/17 01:15:46;;;;;;;10.90;9.77;;;;;;;-145.00;70.10;72905.56;5072061;28;20055;-72
2023/08/17 01:18:20;;;;;;;13.27;11.25;;;;;;;-145.00;71.78;72940.94;5071230;28;20412;-72
2023/08/17 01:20:47;;;;;;;12.48;11.18;;;;;;;-145.00;70.94;72926.38;5070846;28;20056;-72
2023/08/17 01:23:15;;;;;;;10.75;9.65;;;;;;;-145.00;70.30;72909.72;5070235;28;20063;-72
2023/08/17 01:25:41;;;;;;;12.77;10.80;;;;;;;-145.00;70.35;72915.97;5070558;28;20051;-72
2023/08/17 01:28:08;;;;;;;10.85;9.07;;;;;;;-145.00;70.40;72913.88;5070462;28;20052;-72
2023/08/17 01:30:45;;;;;;;11.07;9.30;;;;;;;-145.00;69.70;72901.38;5070139;28;20044;-72
2023/08/17 01:33:15;;;;;;;15.02;9.63;;;;;;;-145.00;69.59;72893.06;5068413;28;20185;-72
2023/08/17 01:35:46;;;;;;;13.43;10.50;;;;;;;-145.00;69.53;72893.06;5070852;28;20057;-72
2023/08/17 01:38:18;;;;;;;11.55;9.25;;;;;;;-145.00;69.49;72893.06;5070183;28;20051;-73
2023/08/17 01:40:46;;;;;;;11.80;10.10;;;;;;;-145.00;69.49;72888.91;5070274;28;20071;-73
2023/08/17 01:43:13;;;;;;;11.93;9.88;;;;;;;-145.00;69.70;72893.06;5069318;28;20450;-73
2023/08/17 01:45:40;;;;;;;13.60;10.50;;;;;;;-145.00;69.72;72888.91;5070346;28;20040;-73
2023/08/17 01:48:07;;;;;;;12.13;10.52;;;;;;;-145.00;69.82;72882.66;5069874;28;20057;-72
2023/08/17 01:50:33;;;;;;;14.15;11.13;;;;;;;-145.00;69.81;72880.56;5069693;28;20045;-72
2023/08/17 01:52:59;;;;;;;16.02;12.73;;;;;;;-145.00;70.08;72876.41;5070082;28;20045;-72
2023/08/17 01:55:27;;;;;;;16.90;14.43;;;;;;;-145.00;70.25;72872.25;5069178;28;20046;-72
2023/08/17 01:57:54;;;;;;;20.00;15.00;;;;;;;-145.00;70.21;72870.16;5069969;28;20044;-72
2023/08/17 02:00:20;;;;;;;18.83;15.82;;;;;;;-145.00;70.32;72872.25;5068971;28;20056;-72
2023/08/17 02:02:47;;;;;;;23.33;17.77;;;;;;;-145.00;70.99;72872.25;5061708;28;20640;-72
2023/08/17 02:05:13;;;;;;;24.60;18.25;;;;;;;-145.00;71.86;72870.16;5069076;28;20053;-72
2023/08/17 02:07:40;;;;;;;29.00;21.30;;;;;;;-145.00;72.64;72878.50;5069827;28;20053;-72
2023/08/17 02:10:07;;;;;;;29.95;20.35;;;;;;;-145.00;72.93;72880.56;5068648;28;20398;-72
2023/08/17 02:12:35;;;;;;;22.33;17.38;;;;;;;-145.00;72.88;72872.25;5069375;28;20051;-72
2023/08/17 02:15:02;;;;;;;26.90;20.98;;;;;;;-145.00;73.26;72880.56;5069065;28;20049;-73
2023/08/17 02:17:28;;;;;;;24.13;18.42;;;;;;;-145.00;72.69;72874.31;5069312;28;20048;-73
2023/08/17 02:19:56;;;;;;;26.25;18.33;;;;;;;-145.00;72.48;72868.09;5068950;28;20705;-72
2023/08/17 02:22:22;;;;;;;27.05;21.23;;;;;;;-145.00;72.01;72863.91;5068458;28;20047;-72
2023/08/17 02:24:49;;;;;;;28.02;19.45;;;;;;;-145.00;71.68;72863.91;5068907;28;20057;-73
2023/08/17 02:27:15;;;;;;;22.40;17.13;;;;;;;-145.00;71.95;72857.66;5068337;28;20079;-73
2023/08/17 02:29:43;;;;;;;21.52;15.60;;;;;;;-145.00;71.70;72868.09;5068797;28;20563;-72
2023/08/17 02:32:10;;;;;;;16.48;13.88;;;;;;;-145.00;71.69;72863.91;5068298;28;20045;-72
2023/08/17 02:34:36;;;;;;;24.52;17.35;;;;;;;-145.00;71.37;72855.59;5068610;28;20060;-72
2023/08/17 02:37:03;;;;;;;26.92;19.35;;;;;;;-145.00;71.17;72851.44;5068312;28;20051;-72
2023/08/17 02:39:29;;;;;;;26.23;19.20;;;;;;;-145.00;71.31;72847.25;5068910;28;20063;-73
2023/08/17 02:41:56;;;;;;;29.88;19.13;;;;;;;-145.00;71.29;72847.25;5068366;28;20133;-72
2023/08/17 02:44:22;;;;;;;24.90;19.25;;;;;;;-145.00;71.02;72855.59;5068073;28;20064;-75
2023/08/17 02:46:50;;;;;;;24.35;19.17;;;;;;;-145.00;71.45;72870.16;5068916;28;20060;-72
2023/08/17 02:49:16;;;;;;;22.50;17.02;;;;;;;-145.00;71.31;72870.16;5068411;28;20048;-72
2023/08/17 02:51:43;;;;;;;20.08;16.25;;;;;;;-145.00;71.72;72880.56;5068252;28;20519;-73
2023/08/17 02:54:09;;;;;;;19.75;16.13;;;;;;;-145.00;71.26;72863.91;5068116;28;20056;-72
2023/08/17 02:56:36;;;;;;;24.45;18.70;;;;;;;-145.00;71.04;72866.00;5068172;28;20410;-72
2023/08/17 02:59:02;;;;;;;23.42;18.52;;;;;;;-145.00;71.19;72868.09;5067730;28;20045;-72
2023/08/17 03:01:29;;;;;;;24.52;19.05;;;;;;;-145.00;71.46;72868.09;5068336;28;20490;-72
2023/08/17 03:03:57;;;;;;;27.63;20.25;;;;;;;-145.00;71.73;72863.91;5068535;28;20144;-72
2023/08/17 03:06:24;;;;;;;26.98;20.20;;;;;;;-145.00;72.11;72863.91;5068201;28;20049;-72
2023/08/17 03:08:52;;;;;;;28.35;21.67;;;;;;;-145.00;72.61;72876.41;5069267;28;20048;-72
2023/08/17 03:11:20;;;;;;;31.40;22.90;;;;;;;-145.00;73.34;72901.38;5068155;28;20044;-72
2023/08/17 03:13:48;;;;;;;35.08;26.25;;;;;;;-145.00;75.49;72938.88;5067947;28;20040;-73
2023/08/17 03:16:14;;;;;;;29.73;22.92;;;;;;;-145.00;75.46;72936.78;5068208;28;20508;-72
2023/08/17 03:18:41;;;;;;;28.63;23.08;;;;;;;-145.00;74.52;72909.72;5068317;28;20055;-72
2023/08/17 03:21:08;;;;;;;28.23;21.65;;;;;;;-145.00;73.99;72895.16;5067080;28;20048;-72
2023/08/17 03:23:35;;;;;;;28.65;21.85;;;;;;;-145.00;73.88;72884.72;5067216;28;20044;-72
2023/08/17 03:26:01;;;;;;;27.77;21.50;;;;;;;-145.00;73.79;72880.56;5068013;28;20047;-72
2023/08/17 03:28:28;;;;;;;27.75;22.35;;;;;;;-145.00;73.64;72878.50;5067856;28;20058;-72
2023/08/17 03:30:56;;;;;;;29.98;22.40;;;;;;;-145.00;74.46;72897.22;5067193;28;20051;-73
2023/08/17 03:33:22;;;;;;;25.90;20.33;;;;;;;-145.00;73.90;72893.06;5062049;28;20052;-72
2023/08/17 03:35:49;;;;;;;22.92;18.75;;;;;;;-145.00;74.01;72899.31;5067620;28;20412;-72
2023/08/17 03:38:17;;;;;;;24.17;18.88;;;;;;;-145.00;73.79;72901.38;5067525;28;20044;-72
2023/08/17 03:40:43;;;;;;;29.63;23.33;;;;;;;-145.00;73.45;72897.22;5068087;28;20052;-72
2023/08/17 03:43:10;;;;;;;25.70;20.58;;;;;;;-145.00;73.27;72903.47;5067985;28;20052;-72
2023/08/17 03:45:37;;;;;;;27.20;21.05;;;;;;;-145.00;73.47;72901.38;5068832;28;20135;-73
2023/08/17 03:48:04;;;;;;;25.80;20.15;;;;;;;-145.00;73.69;72899.31;5068812;28;20065;-72
2023/08/17 03:50:30;;;;;;;26.85;21.35;;;;;;;-145.00;73.78;72903.47;5069344;28;20075;-72
2023/08/17 03:52:57;;;;;;;23.55;19.67;;;;;;;-145.00;73.50;72909.72;5070124;28;20053;-72
2023/08/17 03:55:24;;;;;;;25.77;20.02;;;;;;;-145.00;72.94;72905.56;5071991;28;20056;-73
2023/08/17 03:57:51;;;;;;;24.27;19.17;;;;;;;-145.00;73.07;72918.03;5071988;28;20056;-72
2023/08/17 04:00:18;;;;;;;22.25;17.33;;;;;;;-145.00;73.63;72926.38;5068844;28;20045;-72
2023/08/17 04:02:45;;;;;;;23.67;18.55;;;;;;;-145.00;73.50;72924.28;5069012;28;20442;-72
2023/08/17 04:05:11;;;;;;;21.95;18.77;;;;;;;-145.00;73.13;72924.28;5069065;28;20067;-72
2023/08/17 04:07:38;;;;;;;22.02;18.70;;;;;;;-145.00;73.41;72926.38;5068758;28;20412;-72
2023/08/17 04:10:08;;;;;;;22.00;18.38;;;;;;;-145.00;73.21;72928.44;5067990;28;20590;-72
2023/08/17 04:12:36;;;;;;;21.33;17.40;;;;;;;-145.00;73.13;72928.44;5067232;28;20052;-72
2023/08/17 04:15:02;;;;;;;26.48;19.08;;;;;;;-145.00;73.38;72938.88;5067499;28;20651;-72
2023/08/17 04:17:29;;;;;;;22.17;17.92;;;;;;;-145.00;73.56;72938.88;5068314;28;20044;-72
2023/08/17 04:19:55;;;;;;;22.33;18.52;;;;;;;-145.00;73.64;72934.69;5068428;28;20389;-72
2023/08/17 04:22:22;;;;;;;24.42;20.38;;;;;;;-145.00;74.41;72968.00;5067424;28;20082;-72
2023/08/17 04:24:48;;;;;;;29.08;23.52;;;;;;;-145.00;75.49;72988.81;5067886;28;20055;-72
2023/08/17 04:27:15;;;;;;;23.27;19.70;;;;;;;-145.00;75.71;72997.16;5067937;28;20048;-72
2023/08/17 04:29:42;;;;;;;24.90;19.98;;;;;;;-145.00;74.68;72970.09;5067531;28;20175;-72
2023/08/17 04:32:14;;;;;;;23.90;19.55;;;;;;;-145.00;74.11;72955.50;5067258;28;20040;-72
2023/08/17 04:34:42;;;;;;;29.60;23.03;;;;;;;-145.00;74.99;72980.50;5071469;28;20427;-72
2023/08/17 04:37:09;;;;;;;35.42;26.27;;;;;;;-145.00;76.83;73038.78;5071114;28;20045;-72
2023/08/17 04:39:35;;;;;;;26.48;20.73;;;;;;;-145.00;76.19;73017.97;5070113;28;20523;-72
2023/08/17 04:42:03;;;;;;;29.00;23.02;;;;;;;-145.00;75.95;73013.81;5070886;28;20055;-72
2023/08/17 04:44:30;;;;;;;30.38;24.05;;;;;;;-145.00;76.91;73032.53;5071387;28;20067;-72
2023/08/17 04:47:00;;;;;;;34.97;25.73;;;;;;;-145.00;76.86;73038.78;5071421;28;20059;-72
2023/08/17 04:49:27;;;;;;;32.50;24.50;;;;;;;-145.00;76.91;73047.13;5071342;28;20500;-72
2023/08/17 04:51:53;;;;;;;31.70;23.90;;;;;;;-145.00;77.36;73055.44;5068461;28;20099;-72
2023/08/17 04:54:20;;;;;;;30.83;24.60;;;;;;;-145.00;76.09;73051.28;5070823;28;20048;-72
2023/08/17 04:56:47;;;;;;;36.63;25.42;;;;;;;-145.00;76.69;73080.44;5071094;28;20053;-72
2023/08/17 04:59:13;;;;;;;35.35;23.50;;;;;;;-145.00;76.23;73065.84;5071050;28;20047;-72
2023/08/17 05:01:39;;;;;;;37.30;25.88;;;;;;;-145.00;78.41;73101.25;5071556;28;20385;-72
2023/08/17 05:04:08;;;;;;;39.78;29.10;;;;;;;-145.00;80.13;73113.75;5071264;28;20056;-72
2023/08/17 05:06:35;;;;;;;33.20;25.15;;;;;;;-145.00;78.78;73082.50;5071153;28;20559;-73
2023/08/17 05:09:02;;;;;;;32.45;25.08;;;;;;;-145.00;79.29;73080.44;5071509;28;20518;-72
2023/08/17 05:11:29;;;;;;;35.15;26.92;;;;;;;-145.00;79.48;73086.69;5071400;28;20050;-72
2023/08/17 05:13:55;;;;;;;46.25;29.88;;;;;;;-145.00;81.68;73126.22;5071343;28;20575;-72
2023/08/17 05:16:22;;;;;;;33.63;24.92;;;;;;;-145.00;81.38;73105.41;5070964;28;20052;-72
2023/08/17 05:18:49;;;;;;;34.90;24.08;;;;;;;-145.00;78.87;73061.69;5071273;28;20076;-72
2023/08/17 05:21:16;;;;;;;42.30;30.00;;;;;;;-145.00;80.50;73092.91;5070380;28;20749;-72
2023/08/17 05:23:43;;;;;;;33.97;23.88;;;;;;;-145.00;78.50;73051.28;5070785;28;20449;-72
2023/08/17 05:26:09;;;;;;;32.00;23.42;;;;;;;-145.00;77.14;73030.47;5069800;28;20055;-72
2023/08/17 05:28:36;;;;;;;28.88;23.33;;;;;;;-145.00;76.96;73026.31;5070445;28;20048;-72
2023/08/17 05:31:05;;;;;;;28.10;23.55;;;;;;;-145.00;76.08;73003.41;5069267;28;20064;-73
2023/08/17 05:33:32;;;;;;;27.42;20.95;;;;;;;-145.00;75.07;72993.00;5069413;28;20459;-72
2023/08/17 05:35:59;;;;;;;26.15;20.02;;;;;;;-145.00;75.33;72995.06;5069716;28;20061;-72
2023/08/17 05:38:26;;;;;;;23.17;19.13;;;;;;;-145.00;75.16;72990.91;5069480;28;20055;-72
2023/08/17 05:40:55;;;;;;;20.33;17.20;;;;;;;-145.00;75.30;72988.81;5070029;28;20445;-72
2023/08/17 05:43:22;;;;;;;19.98;17.17;;;;;;;-145.00;75.04;72980.50;5069671;28;20048;-72
2023/08/17 05:45:49;;;;;;;18.80;16.05;;;;;;;-145.00;75.13;72974.25;5069385;28;20053;-73
2023/08/17 05:48:15;;;;;;;15.90;14.20;;;;;;;-145.00;75.23;72965.94;5069952;28;20053;-72
2023/08/17 05:50:42;;;;;;;14.68;13.23;;;;;;;-145.00;73.91;72959.69;5070934;28;20040;-72
2023/08/17 05:53:08;;;;;;;14.00;12.50;;;;;;;-145.00;73.67;72959.69;5069882;28;20063;-73
2023/08/17 05:55:36;;;;;;;13.43;12.02;;;;;;;-145.00;74.29;72957.59;5070968;28;20066;-74
2023/08/17 05:58:03;;;;;;;13.55;12.25;;;;;;;-145.00;73.78;72949.28;5070248;28;20052;-73
2023/08/17 06:00:30;;;;;;;14.02;11.85;;;;;;;-145.00;73.70;72951.34;5070563;28;20040;-74
2023/08/17 06:03:01;;;;;;;12.50;11.30;;;;;;;-145.00;74.05;72951.34;5070892;28;20052;-74
2023/08/17 06:05:28;;;;;;;12.30;11.10;;;;;;;-145.00;73.72;72947.19;5070635;28;20131;-74
2023/08/17 06:07:55;;;;;;;12.20;11.00;;;;;;;-145.00;73.18;72943.03;5070695;28;20044;-74
2023/08/17 06:10:24;;;;;;;13.05;11.75;;;;;;;-145.00;72.64;72930.53;5070320;28;22344;-74
2023/08/17 06:12:53;;;;;;;12.50;11.30;;;;;;;-145.00;72.09;72922.22;5070368;28;20072;-74
2023/08/17 06:15:19;;;;;;;11.50;10.38;;;;;;;-145.00;71.90;72909.72;5070580;28;20044;-74
2023/08/17 06:17:46;;;;;;;13.38;11.98;;;;;;;-145.00;72.22;72918.03;5070601;28;20067;-73
2023/08/17 06:20:14;;;;;;;13.80;12.38;;;;;;;-145.00;72.39;72918.03;5070026;28;20047;-74
2023/08/17 06:22:40;;;;;;;13.00;11.52;;;;;;;-145.00;72.47;72913.88;5070975;28;20074;-74
2023/08/17 06:25:08;;;;;;;15.63;13.93;;;;;;;-145.00;72.92;72913.88;5070539;27;20044;-74
2023/08/17 06:27:35;;;;;;;16.33;13.85;;;;;;;-145.00;72.69;72897.22;5070775;28;20055;-74
2023/08/17 06:30:03;;;;;;;15.35;13.38;;;;;;;-145.00;72.44;72893.06;5069710;28;20036;-73
2023/08/17 06:32:30;;;;;;;14.07;12.65;;;;;;;-145.00;72.90;72893.06;5070685;28;20076;-74
2023/08/17 06:34:57;;;;;;;16.65;14.93;;;;;;;-145.00;73.67;72895.16;5071043;28;20044;-74
2023/08/17 06:37:23;;;;;;;14.90;12.88;;;;;;;-145.00;74.51;72897.22;5070129;28;20131;-74
2023/08/17 06:39:50;;;;;;;16.27;13.93;;;;;;;-145.00;74.51;72890.97;5070358;28;20048;-74
2023/08/17 06:42:16;;;;;;;14.52;12.77;;;;;;;-145.00;73.04;72868.09;5055350;28;20057;-74
2023/08/17 06:44:43;;;;;;;13.15;11.80;;;;;;;-145.00;72.23;72851.44;5053098;28;20067;-74
2023/08/17 06:47:11;;;;;;;16.95;12.95;;;;;;;-145.00;72.61;72870.16;5056574;28;20052;-75
2023/08/17 06:49:37;;;;;;;15.98;12.38;;;;;;;-145.00;72.04;72843.09;5068753;28;20052;-75
2023/08/17 06:52:04;;;;;;;16.88;12.30;;;;;;;-145.00;71.09;72820.19;5082784;28;20052;-74
2023/08/17 06:54:32;;;;;;;15.25;12.23;;;;;;;-145.00;70.07;72818.13;5071136;28;20051;-75
2023/08/17 06:56:58;;;;;;;14.90;12.30;;;;;;;-145.00;70.06;72805.63;5069867;28;20048;-75
2023/08/17 06:59:25;;;;;;;10.27;9.18;;;;;;;-145.00;69.10;72780.66;5070659;28;20411;-74
2023/08/17 07:01:51;;;;;;;14.30;10.82;;;;;;;-145.00;68.50;72764.00;5070685;28;20499;-73
2023/08/17 07:04:19;;;;;;;12.30;11.00;;;;;;;-145.00;67.82;72759.81;5070642;28;20055;-73
2023/08/17 07:06:45;;;;;;;11.40;10.20;;;;;;;-145.00;67.29;72741.09;5071159;28;20040;-73
2023/08/17 07:09:13;;;;;;;14.52;10.82;;;;;;;-145.00;65.93;72722.34;5071475;28;20053;-73
2023/08/17 07:11:39;;;;;;;12.00;10.70;;;;;;;-145.00;66.38;72736.94;5071205;28;20102;-73
2023/08/17 07:14:06;;;;;;;10.48;9.35;;;;;;;-145.00;66.15;72714.03;5070680;28;20060;-73
2023/08/17 07:16:33;;;;;;;9.40;8.40;;;;;;;-145.00;65.58;72689.06;5071389;28;20048;-73
2023/08/17 07:19:00;;;;;;;11.60;8.52;;;;;;;-145.00;64.90;72684.88;5071006;28;20386;-74
2023/08/17 07:21:27;;;;;;;9.77;8.35;;;;;;;-145.00;63.99;72655.75;5070246;28;20044;-74
2023/08/17 07:23:55;;;;;;;10.77;8.85;;;;;;;-145.00;62.68;72632.84;5070064;28;20048;-74
2023/08/17 07:26:22;;;;;;;9.45;8.45;;;;;;;-145.00;62.61;72626.59;5069385;28;20056;-74
2023/08/17 07:28:49;;;;;;;8.38;7.53;;;;;;;-145.00;62.67;72607.88;5069955;28;20056;-73
2023/08/17 07:31:16;;;;;;;9.13;7.70;;;;;;;-145.00;61.70;72584.97;5068926;28;20048;-73
2023/08/17 07:33:42;;;;;;;8.82;7.88;;;;;;;-145.00;60.70;72553.75;5070076;28;20072;-73
2023/08/17 07:36:09;;;;;;;10.75;7.82;;;;;;;-145.00;59.11;72518.34;5069808;28;20420;-74
2023/08/17 07:38:37;;;;;;;8.95;7.88;;;;;;;-145.00;58.11;72480.88;5069072;28;20048;-73
2023/08/17 07:41:03;;;;;;;8.48;7.22;;;;;;;-145.00;55.86;72380.97;5069031;28;20059;-73
2023/08/17 07:43:30;;;;;;;9.80;7.72;;;;;;;-145.00;52.96;72314.38;5069733;28;20044;-73
2023/08/17 07:45:57;;;;;;;7.97;6.93;;;;;;;-145.00;51.59;72289.38;5070274;28;20481;-73
2023/08/17 07:48:24;;;;;;;9.93;7.65;;;;;;;-145.00;52.04;72303.97;5069346;28;20051;-73
2023/08/17 07:50:51;;;;;;;8.18;7.15;;;;;;;-145.00;52.30;72258.16;5069857;28;20056;-74
2023/08/17 07:53:18;;;;;;;7.22;5.97;;;;;;;-145.00;52.30;72249.84;5068705;28;20048;-74
2023/08/17 07:55:46;;;;;;;6.72;6.03;;;;;;;-145.00;50.52;72185.31;5069407;28;20567;-74
2023/08/17 07:58:12;;;;;;;7.32;6.63;;;;;;;-145.00;48.85;72160.34;5069891;28;20040;-73
2023/08/17 08:00:39;;;;;;;7.90;6.65;;;;;;;-145.00;48.57;72177.00;5070358;28;20052;-73
2023/08/17 08:03:05;;;;;;;8.60;6.70;;;;;;;-145.00;48.82;72220.69;5070153;28;20102;-75
2023/08/17 08:05:32;;;;;;;7.38;6.38;;;;;;;-145.00;50.99;72268.56;5070892;28;20090;-76
2023/08/17 08:07:59;;;;;;;9.88;6.00;;;;;;;-145.00;50.53;72168.66;5071404;28;20052;-74
2023/08/17 08:10:25;;;;;;;6.65;5.95;;;;;;;-145.00;48.67;72147.84;5072814;28;20048;-76
2023/08/17 08:12:53;;;;;;;7.22;6.50;;;;;;;-145.00;49.11;72110.38;5073549;28;20037;-77
2023/08/17 08:15:20;;;;;;;6.93;6.22;;;;;;;-145.00;49.07;72085.41;5072211;28;20052;-77
2023/08/17 08:17:46;;;;;;;10.13;6.00;;;;;;;-145.00;46.40;72031.28;5072335;28;20048;-74
2023/08/17 08:20:13;;;;;;;11.07;6.43;;;;;;;-145.00;46.12;72062.50;5071045;28;20056;-75
2023/08/17 08:22:39;;;;;;;7.03;5.45;;;;;;;-145.00;46.33;72020.88;5073370;28;20057;-75
2023/08/17 08:25:06;;;;;;;6.30;5.60;;;;;;;-145.00;45.26;71975.09;5072977;28;20064;-74
2023/08/17 08:27:33;;;;;;;6.97;6.10;;;;;;;-145.00;45.83;72018.81;5070723;28;20515;-74
2023/08/17 08:30:01;;;;;;;6.93;6.03;;;;;;;-145.00;43.92;71943.88;5067506;28;20052;-74
2023/08/17 08:32:28;;;;;;;7.20;5.47;;;;;;;-145.00;44.47;71935.56;5068449;28;20048;-73
2023/08/17 08:34:54;;;;;;;8.27;6.40;;;;;;;-145.00;46.68;72097.91;5068309;28;20595;-74
2023/08/17 08:37:21;;;;;;;6.20;5.60;;;;;;;-145.00;44.95;72039.63;5066807;28;20400;-74
2023/08/17 08:39:51;;;;;;;7.03;5.45;;;;;;;-145.00;44.06;71956.38;5067255;28;20052;-74
2023/08/17 08:42:18;;;;;;;6.25;5.35;;;;;;;-145.00;44.20;71943.88;5066504;28;20500;-74
2023/08/17 08:44:45;;;;;;;6.53;5.50;;;;;;;-145.00;43.65;71918.91;5066814;28;20118;-74
2023/08/17 08:47:14;;;;;;;6.53;5.93;;;;;;;-145.00;42.38;71898.09;5066503;28;20044;-75
2023/08/17 08:49:43;;;;;;;7.63;5.90;;;;;;;-145.00;41.86;71885.59;5067041;28;20048;-74
2023/08/17 08:52:19;;;;;;;8.95;6.18;;;;;;;-145.00;44.00;71877.28;5066465;28;20063;-74
2023/08/17 08:54:50;;;;;;;14.98;7.03;;;;;;;-145.00;44.36;71889.75;5066771;28;20052;-74
2023/08/17 08:57:18;;;;;;;9.35;5.95;;;;;;;-145.00;44.15;71823.16;5066265;28;20048;-74
2023/08/17 08:59:46;;;;;;;6.40;5.75;;;;;;;-145.00;42.94;71848.13;5066065;28;20377;-74
2023/08/17 09:02:16;;;;;;;7.63;6.63;;;;;;;-145.00;43.40;71819.00;5065580;28;20055;-75
2023/08/17 09:04:44;;;;;;;7.63;6.18;;;;;;;-145.00;43.62;71862.69;5066148;28;20040;-76
2023/08/17 09:07:12;;;;;;;8.45;6.68;;;;;;;-145.00;42.84;71794.03;5065714;28;20531;-75
2023/08/17 09:09:39;;;;;;;6.95;5.63;;;;;;;-145.00;42.65;71764.88;5066276;28;20048;-76
2023/08/17 09:12:08;;;;;;;6.47;5.50;;;;;;;-145.00;42.21;71731.59;5065673;28;20047;-75
2023/08/17 09:14:35;;;;;;;9.07;6.30;;;;;;;-145.00;41.53;71733.66;5065690;28;20057;-74
2023/08/17 09:17:01;;;;;;;9.20;6.97;;;;;;;-145.00;44.03;71956.38;5066369;28;20041;-74
2023/08/17 09:19:29;;;;;;;7.75;6.95;;;;;;;-145.00;44.32;71950.13;5066124;28;20045;-74
2023/08/17 09:21:55;;;;;;;6.65;6.05;;;;;;;-145.00;43.90;71819.00;5069848;28;20052;-74
2023/08/17 09:24:22;;;;;;;7.25;6.15;;;;;;;-145.00;42.90;71714.94;5069039;28;20048;-75
2023/08/17 09:26:50;;;;;;;8.23;6.45;;;;;;;-145.00;40.84;71681.63;5069619;28;20052;-76
2023/08/17 09:29:20;;;;;;;10.02;7.32;;;;;;;-145.00;39.94;71654.59;5068761;28;20060;-75
2023/08/17 09:31:47;;;;;;;8.15;7.00;;;;;;;-145.00;40.84;71625.44;5069327;28;20599;-75
2023/08/17 09:34:15;;;;;;;8.38;6.38;;;;;;;-145.00;40.73;71644.19;5068641;28;20048;-75
2023/08/17 09:36:47;;;;;;;8.95;6.97;;;;;;;-145.00;39.75;71652.50;5069525;28;20071;-75
2023/08/17 09:39:13;;;;;;;9.88;7.88;;;;;;;-145.00;40.97;71764.88;5068953;28;20072;-75
2023/08/17 09:41:41;;;;;;;8.50;7.25;;;;;;;-145.00;42.13;71685.81;5069224;28;20048;-76
2023/08/17 09:44:08;;;;;;;8.70;7.75;;;;;;;-145.00;40.75;71696.22;5068846;28;20052;-76
2023/08/17 09:46:34;;;;;;;10.45;7.40;;;;;;;-145.00;42.33;71665.00;5069411;28;20040;-76
2023/08/17 09:49:04;;;;;;;10.27;7.05;;;;;;;-145.00;41.37;71692.03;5069183;28;20067;-75
2023/08/17 09:51:30;;;;;;;7.53;6.53;;;;;;;-145.00;41.53;71656.66;5068814;28;20044;-76
2023/08/17 09:53:58;;;;;;;7.25;6.40;;;;;;;-145.00;40.91;71652.50;5068863;28;20579;-75
2023/08/17 09:56:27;;;;;;;9.13;6.90;;;;;;;-145.00;41.97;71640.00;5068615;28;20056;-75
2023/08/17 09:58:54;;;;;;;8.45;7.18;;;;;;;-145.00;40.25;71631.69;5068951;28;20055;-75
2023/08/17 10:01:22;;;;;;;10.30;6.40;;;;;;;-145.00;41.28;71610.88;5068339;28;20053;-76
2023/08/17 10:03:50;;;;;;;7.97;6.10;;;;;;;-145.00;39.96;71590.06;5068696;28;20486;-75
2023/08/17 10:06:23;;;;;;;8.57;7.53;;;;;;;-145.00;38.86;71602.56;5068702;28;20045;-75
2023/08/17 10:08:53;;;;;;;7.65;6.57;;;;;;;-145.00;40.40;71656.66;5068990;28;20051;-75
2023/08/17 10:11:24;;;;;;;7.95;6.40;;;;;;;-145.00;39.92;71623.38;5068473;28;20041;-75
2023/08/17 10:13:56;;;;;;;6.95;6.25;;;;;;;-145.00;40.05;71585.91;5068717;28;20048;-75
2023/08/17 10:16:25;;;;;;;11.15;7.72;;;;;;;-145.00;40.37;71725.34;5068279;28;20055;-76
2023/08/17 10:18:56;;;;;;;6.53;5.93;;;;;;;-145.00;41.43;71633.78;5068479;28;20057;-75
2023/08/17 10:21:28;;;;;;;8.00;6.95;;;;;;;-145.00;40.39;71631.69;5068138;28;20507;-75
2023/08/17 10:23:56;;;;;;;7.60;6.90;;;;;;;-145.00;40.64;71600.47;5068361;28;20048;-75
2023/08/17 10:26:24;;;;;;;8.85;7.07;;;;;;;-145.00;39.86;71604.63;5068113;28;20044;-75
2023/08/17 10:28:52;;;;;;;8.65;6.75;;;;;;;-145.00;40.98;71571.34;5068513;28;20057;-75
2023/08/17 10:31:19;;;;;;;8.10;6.03;;;;;;;-145.00;38.86;71546.38;5067167;28;20059;-75
2023/08/17 10:33:48;;;;;;;8.23;6.80;;;;;;;-145.00;39.61;71598.38;5068263;28;20041;-75
2023/08/17 10:36:15;;;;;;;8.48;6.15;;;;;;;-145.00;40.66;71606.72;5067878;28;20572;-75
2023/08/17 10:38:42;;;;;;;7.70;6.88;;;;;;;-145.00;40.43;71569.25;5068230;28;20052;-75
2023/08/17 10:41:09;;;;;;;7.03;6.30;;;;;;;-145.00;39.06;71581.75;5067933;28;20052;-75
2023/08/17 10:43:54;;;;;;;6.95;6.25;;;;;;;-145.00;39.11;71540.13;5067840;28;20076;-75
2023/08/17 10:46:21;;;;;;;7.20;6.45;;;;;;;-145.00;38.45;71552.59;5067714;28;20052;-76
2023/08/17 10:48:47;;;;;;;8.48;6.45;;;;;;;-145.00;38.96;71542.19;5068104;28;20048;-75
2023/08/17 10:51:13;;;;;;;6.95;6.30;;;;;;;-145.00;38.60;71531.78;5067597;28;20048;-75
2023/08/17 10:53:44;;;;;;;7.55;6.65;;;;;;;-145.00;39.04;71531.78;5067791;28;20052;-75
2023/08/17 10:56:15;;;;;;;7.45;6.75;;;;;;;-145.00;37.99;71523.47;5067501;28;20526;-75
2023/08/17 10:58:45;;;;;;;7.03;6.30;;;;;;;-145.00;39.03;71506.81;5067646;28;20090;-75
2023/08/17 11:01:13;;;;;;;7.10;6.40;;;;;;;-145.00;38.64;71515.16;5066954;28;20110;-75
2023/08/17 11:03:42;;;;;;;7.97;6.15;;;;;;;-145.00;37.70;71513.06;5067721;28;20403;-75
2023/08/17 11:06:18;;;;;;;7.55;6.28;;;;;;;-145.00;37.99;71519.31;5066983;28;20048;-75
2023/08/17 11:08:55;;;;;;;7.63;5.50;;;;;;;-145.00;38.06;71510.97;5067850;28;20462;-75